createdAt,value
2022-11-23T00:03:16.700Z,100
2022-11-23T00:08:14.861Z,100
2022-11-23T00:13:12.907Z,100
2022-11-23T00:18:11.133Z,100
2022-11-23T00:23:09.372Z,100
2022-11-23T00:28:07.814Z,100
2022-11-23T00:33:05.989Z,100
2022-11-23T00:38:04.225Z,100
2022-11-23T00:43:02.513Z,100
2022-11-23T00:48:00.725Z,100
2022-11-23T00:52:58.887Z,100
2022-11-23T00:57:56.944Z,100
2022-11-23T01:02:55.019Z,100
2022-11-23T01:07:53.212Z,100
2022-11-23T01:12:51.224Z,100
2022-11-23T01:17:49.435Z,100
2022-11-23T01:22:47.538Z,100
2022-11-23T01:27:45.706Z,100
2022-11-23T01:32:44.049Z,100
2022-11-23T01:37:42.249Z,100
2022-11-23T01:42:40.540Z,100
2022-11-23T01:47:38.653Z,100
2022-11-23T01:52:36.948Z,100
2022-11-23T01:57:35.205Z,100
2022-11-23T02:02:33.362Z,100
2022-11-23T02:07:31.509Z,100
2022-11-23T02:12:29.665Z,100
2022-11-23T02:17:27.845Z,100
2022-11-23T02:22:26.076Z,100
2022-11-23T02:27:24.323Z,100
2022-11-23T02:32:22.547Z,100
2022-11-23T02:37:20.698Z,100
2022-11-23T02:42:19.134Z,100
2022-11-23T02:47:17.494Z,100
2022-11-23T02:52:16.068Z,100
2022-11-23T02:57:14.412Z,100
2022-11-23T03:02:12.723Z,100
2022-11-23T03:07:11.123Z,100
2022-11-23T03:12:09.235Z,100
2022-11-23T03:17:07.521Z,100
2022-11-23T03:22:05.698Z,100
2022-11-23T03:27:03.748Z,100
2022-11-23T03:32:02.074Z,100
2022-11-23T03:37:00.359Z,100
2022-11-23T03:41:58.817Z,100
2022-11-23T03:46:57.280Z,100
2022-11-23T03:51:55.572Z,100
2022-11-23T03:56:54.102Z,100
2022-11-23T04:01:52.436Z,100
2022-11-23T04:06:50.751Z,100
2022-11-23T04:11:49.055Z,100
2022-11-23T04:16:47.256Z,100
2022-11-23T04:21:45.509Z,100
2022-11-23T04:26:44.154Z,100
2022-11-23T04:31:42.383Z,100
2022-11-23T04:36:40.633Z,100
2022-11-23T04:41:38.800Z,100
2022-11-23T04:46:37.044Z,100
2022-11-23T04:51:35.110Z,100
2022-11-23T04:56:33.490Z,100
2022-11-23T05:01:31.552Z,100
2022-11-23T05:06:29.698Z,100
2022-11-23T05:11:27.895Z,100
2022-11-23T05:16:26.089Z,100
2022-11-23T05:21:24.412Z,100
2022-11-23T05:26:22.852Z,100
2022-11-23T05:31:21.188Z,100
2022-11-23T05:36:19.508Z,100
2022-11-23T05:41:17.918Z,100
2022-11-23T05:46:16.245Z,100
2022-11-23T05:51:14.640Z,100
2022-11-23T05:56:13.049Z,100
2022-11-23T06:01:11.228Z,100
2022-11-23T06:06:09.837Z,100
2022-11-23T06:11:08.126Z,100
2022-11-23T06:16:06.788Z,100
2022-11-23T06:21:05.425Z,100
2022-11-23T06:26:04.124Z,99.9
2022-11-23T06:31:02.823Z,97.9
2022-11-23T06:36:01.838Z,94.5
2022-11-23T06:41:01.892Z,89.5
2022-11-23T06:46:04.043Z,77
2022-11-23T06:51:06.091Z,66.6
2022-11-23T06:56:03.800Z,69.5
2022-11-23T07:01:03.953Z,59.6
2022-11-23T07:06:06.065Z,53.7
2022-11-23T07:11:04.941Z,52.8
2022-11-23T07:18:05.063Z,50.1
2022-11-23T07:23:03.929Z,49.1
2022-11-23T07:28:04.886Z,44.5
2022-11-23T07:33:05.679Z,40.1
2022-11-23T07:38:05.322Z,38.4
2022-11-23T07:43:04.371Z,37.3
2022-11-23T07:48:03.025Z,36
2022-11-23T07:53:02.028Z,34.9
2022-11-23T07:58:01.235Z,33.8
2022-11-23T08:03:29.841Z,32.8
2022-11-23T08:07:57.524Z,31.6
2022-11-23T08:12:53.791Z,32.1
2022-11-23T08:17:52.339Z,34
2022-11-23T08:22:46.650Z,38.3
2022-11-23T08:27:45.175Z,37.1
2022-11-23T08:32:45.832Z,36
2022-11-23T08:37:43.633Z,35.5
2022-11-23T08:42:42.189Z,34.6
2022-11-23T08:47:41.398Z,32.6
2022-11-23T08:52:38.638Z,33.9
2022-11-23T08:57:38.451Z,31.7
2022-11-23T09:02:34.750Z,35.9
2022-11-23T09:07:30.421Z,36.1
2022-11-23T09:12:29.454Z,37.3
2022-11-23T09:17:31.384Z,33.8
2022-11-23T09:22:26.617Z,36.2
2022-11-23T09:27:25.607Z,38.5
2022-11-23T09:32:18.483Z,44.2
2022-11-23T09:37:20.141Z,38.1
2022-11-23T09:42:19.433Z,34.7
2022-11-23T09:47:20.318Z,32.4
2022-11-23T09:52:18.573Z,30.7
2022-11-23T09:57:17.051Z,29.4
2022-11-23T10:02:15.914Z,29.6
2022-11-23T10:07:14.123Z,28.5
2022-11-23T10:12:12.748Z,28.4
2022-11-23T10:17:12.074Z,28.7
2022-11-23T10:22:07.567Z,28.5
2022-11-23T10:27:06.329Z,28.7
2022-11-23T10:32:04.409Z,28.5
2022-11-23T10:37:02.674Z,28.5
2022-11-23T10:42:00.291Z,28.5
2022-11-23T10:46:58.370Z,28.6
2022-11-23T10:51:55.867Z,28.9
2022-11-23T10:56:53.641Z,30.6
2022-11-23T11:01:50.354Z,32.2
2022-11-23T11:06:46.680Z,34.8
2022-11-23T11:16:52.814Z,38.2
2022-11-23T11:21:48.391Z,40
2022-11-23T11:26:47.103Z,40.4
2022-11-23T11:31:43.515Z,44
2022-11-23T11:41:41.256Z,42.5
2022-11-23T11:46:39.885Z,40.2
2022-11-23T11:51:38.501Z,39.8
2022-11-23T11:56:36.436Z,41.2
2022-11-23T12:01:34.550Z,40.9
2022-11-23T12:06:32.200Z,39.1
2022-11-23T12:11:30.079Z,39.9
2022-11-23T12:16:27.753Z,41.3
2022-11-23T12:21:25.827Z,42.5
2022-11-23T12:26:23.924Z,41.7
2022-11-23T12:31:21.632Z,43.2
2022-11-23T12:36:22.249Z,43.3
2022-11-23T12:41:17.390Z,46
2022-11-23T12:46:14.380Z,48.5
2022-11-23T12:51:12.121Z,48.5
2022-11-23T12:56:10.497Z,48.9
2022-11-23T13:01:08.297Z,49.4
2022-11-23T13:06:05.546Z,50.2
2022-11-23T13:11:03.408Z,50.4
2022-11-23T13:16:01.755Z,51
2022-11-23T13:20:59.995Z,53.6
2022-11-23T13:25:57.879Z,54.4
2022-11-23T13:31:14.364Z,52.6
2022-11-23T13:35:54.850Z,51.8
2022-11-23T13:40:53.337Z,51.8
2022-11-23T13:45:51.661Z,50.9
2022-11-23T13:50:49.636Z,51.4
2022-11-23T13:55:47.240Z,50.9
2022-11-23T14:00:44.979Z,52.5
2022-11-23T14:05:42.344Z,53.9
2022-11-23T14:10:41.002Z,57
2022-11-23T14:15:37.729Z,59.3
2022-11-23T14:20:35.611Z,60.9
2022-11-23T14:25:33.417Z,62.4
2022-11-23T14:30:31.136Z,63.6
2022-11-23T14:35:29.144Z,65.3
2022-11-23T14:40:27.111Z,66.8
2022-11-23T14:45:30.298Z,68.5
2022-11-23T14:50:27.131Z,67.4
2022-11-23T14:55:25.107Z,67.9
2022-11-23T15:00:23.294Z,68.3
2022-11-23T15:05:21.317Z,68.5
2022-11-23T15:10:19.314Z,69.1
2022-11-23T15:15:17.722Z,70.8
2022-11-23T15:20:16.100Z,72
2022-11-23T15:25:14.077Z,73.2
2022-11-23T15:30:12.253Z,73.8
2022-11-23T15:35:10.849Z,75.2
2022-11-23T15:40:08.849Z,76.1
2022-11-23T15:45:06.858Z,76.4
2022-11-23T15:50:04.812Z,77.1
2022-11-23T15:55:07.457Z,77.1
2022-11-23T16:00:01.202Z,76.9
2022-11-23T16:04:59.331Z,77.9
2022-11-23T16:09:57.639Z,76.9
2022-11-23T16:14:55.454Z,77.1
2022-11-23T16:19:53.671Z,77.1
2022-11-23T16:24:51.662Z,77.9
2022-11-23T16:29:49.981Z,79.9
2022-11-23T16:34:48.199Z,78.9
2022-11-23T16:39:46.131Z,81
2022-11-23T16:44:44.446Z,81.2
2022-11-23T16:49:42.330Z,80.5
2022-11-23T16:54:40.724Z,81.8
2022-11-23T16:59:38.976Z,80.4
2022-11-23T17:04:37.509Z,79.4
2022-11-23T17:09:36.260Z,80.7
2022-11-23T17:14:34.247Z,82.2
2022-11-23T17:19:32.777Z,83
2022-11-23T17:24:31.293Z,83.5
2022-11-23T17:29:29.245Z,85.3
2022-11-23T17:34:27.305Z,85
2022-11-23T17:39:25.477Z,86
2022-11-23T17:44:23.554Z,85.8
2022-11-23T17:49:21.764Z,86.5
2022-11-23T17:54:20.035Z,86.6
2022-11-23T17:59:18.364Z,86.8
2022-11-23T18:04:16.331Z,88.9
2022-11-23T18:09:14.386Z,91.4
2022-11-23T18:14:12.512Z,93
2022-11-23T18:19:10.667Z,93.6
2022-11-23T18:24:08.702Z,94.4
2022-11-23T18:29:07.088Z,95.6
2022-11-23T18:34:05.210Z,96.2
2022-11-23T18:39:03.577Z,98.2
2022-11-23T18:44:01.945Z,98.6
2022-11-23T18:49:00.181Z,98.9
2022-11-23T18:53:58.585Z,99.5
2022-11-23T18:58:56.992Z,99.4
2022-11-23T19:03:55.560Z,98.1
2022-11-23T19:08:54.086Z,97.3
2022-11-23T19:13:52.827Z,96.6
2022-11-23T19:18:51.206Z,96.5
2022-11-23T19:23:49.531Z,96.7
2022-11-23T19:28:47.781Z,97.2
2022-11-23T19:33:46.123Z,97.3
2022-11-23T19:38:44.471Z,97.2
2022-11-23T19:43:42.890Z,96.8
2022-11-23T19:48:41.426Z,96.8
2022-11-23T19:53:39.624Z,97
2022-11-23T19:58:37.785Z,97.1
2022-11-23T20:03:35.996Z,97.3
2022-11-23T20:08:34.136Z,97.7
2022-11-23T20:13:32.441Z,97.9
2022-11-23T20:18:30.994Z,97.6
2022-11-23T20:23:29.455Z,97.5
2022-11-23T20:28:28.487Z,96.8
2022-11-23T20:33:27.631Z,96.4
2022-11-23T20:38:26.173Z,96.1
2022-11-23T20:43:24.650Z,95.1
2022-11-23T20:48:23.061Z,94.3
2022-11-23T20:53:21.466Z,94.1
2022-11-23T20:58:19.589Z,94.4
2022-11-23T21:03:17.907Z,94.4
2022-11-23T21:08:18.415Z,94.3
2022-11-23T21:13:14.281Z,94.8
2022-11-23T21:18:12.395Z,95
2022-11-23T21:23:10.723Z,95.3
2022-11-23T21:28:08.839Z,95.5
2022-11-23T21:33:06.966Z,95.3
2022-11-23T21:38:05.068Z,95.4
2022-11-23T21:43:03.350Z,95.5
2022-11-23T21:48:01.430Z,95.4
2022-11-23T21:52:59.665Z,95.6
2022-11-23T21:57:57.733Z,96
2022-11-23T22:02:55.836Z,96.7
2022-11-23T22:08:27.494Z,97.3
2022-11-23T22:12:52.731Z,97.9
2022-11-23T22:17:50.946Z,98.8
2022-11-23T22:22:49.001Z,99.1
2022-11-23T22:27:47.087Z,100
2022-11-23T22:32:44.961Z,100
2022-11-23T22:37:43.001Z,100
2022-11-23T22:42:41.114Z,100
2022-11-23T22:47:39.185Z,100
2022-11-23T22:52:37.705Z,100
2022-11-23T22:57:35.809Z,100
2022-11-23T23:02:34.149Z,100
2022-11-23T23:07:32.444Z,100
2022-11-23T23:12:30.524Z,100
2022-11-23T23:17:28.789Z,100
2022-11-23T23:22:26.951Z,100
2022-11-23T23:27:25.140Z,100
2022-11-23T23:32:23.340Z,100
2022-11-23T23:37:21.505Z,100
